Latest Weather Observations for Bathurst Airport

IDN60801

Issued at 10:35 pm EDT Saturday 25 October 2014 (issued every 30 minutes, with the page automatically refreshed every 10 minutes)

About weather observations | Map of weather stations | Latest weather observations for NSW | Other Formats
Station Details ID: 063291 Name: BATHURST AIRPORT AWS Lat: -33.41 Lon: 149.65 Height: 744.5 m
Data from the previous 72 hours. | See also: Recent months for locations in New South Wales
Date/Time
EDT
Temp
°C
App
Temp
°C
Dew
Point
Rel
Hum
%
Delta-T
°C
Wind Press
QNH
hPa
Press
MSL
hPa
Rain
since 9 am
mm
Dir
 
Spd
km/h
Gust
km/h
Spd
kts
Gust
kts
25/10:30pm 20.0 19.1 11.2 57 5.0 SSW 7 9 4 5 1019.0 1017.7 0.0
25/10:00pm 20.2 19.1 10.0 52 5.7 SSW 6 11 3 6 1018.4 1017.1 0.0
25/09:30pm 19.9 18.2 9.8 52 5.6 NE 9 11 5 6 1017.3 1016.0 0.0
25/09:00pm 20.0 18.2 9.6 51 5.7 NE 9 11 5 6 1017.1 1015.8 0.0
25/08:30pm 21.3 19.1 9.2 46 6.7 ENE 11 13 6 7 1017.1 1015.8 0.0
25/08:00pm 21.4 18.9 9.6 47 6.6 E 13 15 7 8 1016.7 1015.4 0.0
25/07:30pm 22.6 19.8 8.7 41 7.7 E 13 15 7 8 1016.5 1015.2 0.0
25/07:00pm 24.7 22.4 9.0 37 8.8 SE 11 13 6 7 1016.7 1015.4 0.0
25/06:30pm 26.4 23.6 8.4 32 10.1 S 13 17 7 9 1016.5 1015.2 0.0
25/06:00pm 27.9 25.4 8.2 29 11.1 W 11 13 6 7 1016.5 1015.2 0.0
25/05:30pm 27.0 22.0 8.0 30 10.6 WNW 24 30 13 16 1016.7 1015.4 0.0
25/05:00pm 28.4 24.1 7.1 26 11.8 SW 19 24 10 13 1016.6 1015.3 0.0
25/04:30pm 28.7 25.1 8.4 28 11.5 SW 17 24 9 13 1016.6 1015.3 0.0
25/04:00pm 29.8 25.5 7.7 25 12.4 SW 20 32 11 17 1016.7 1015.4 0.0
25/03:30pm 29.7 26.8 8.2 26 12.2 SW 13 22 7 12 1016.8 1015.5 0.0
25/03:00pm 29.7 27.7 8.7 27 12.0 SW 9 20 5 11 1017.1 1015.8 0.0
25/02:30pm 28.8 26.5 9.0 29 11.3 S 11 20 6 11 1017.6 1016.3 0.0
25/02:00pm 29.1 26.9 9.3 29 11.4 SW 11 20 6 11 1018.1 1016.8 0.0
25/01:30pm 28.2 25.0 6.9 26 11.7 SSW 13 24 7 13 1018.5 1017.2 0.0
25/01:00pm 28.0 25.8 7.8 28 11.3 WSW 9 17 5 9 1018.7 1017.5 0.0
25/12:30pm 27.2 25.1 8.1 30 10.7 WSW 9 13 5 7 1019.2 1017.9 0.0
25/12:00pm 26.3 25.0 7.8 31 10.2 SW 4 11 2 6 1019.6 1018.3 0.0
25/11:30am 25.5 23.9 8.1 33 9.6 SW 6 11 3 6 1019.9 1018.7 0.0
25/11:00am 24.6 23.5 10.1 40 8.3 SW 6 13 3 7 1020.1 1018.9 0.0
25/10:30am 23.8 22.9 10.8 44 7.5 WSW 6 9 3 5 1020.1 1018.9 0.0
25/10:00am 22.7 21.4 9.8 44 7.2 W 7 11 4 6 1020.1 1018.9 0.0
25/09:30am 21.4 20.9 9.3 46 6.7 W 2 9 1 5 1020.2 1019.0 0.0
25/08:30am 18.0 18.7 12.2 69 3.3 CALM 0 0 0 0 1020.1 1018.9 0.2
25/08:00am 16.4 16.8 11.3 72 2.8 CALM 0 0 0 0 1020.0 1018.8 0.2
25/07:30am 15.2 15.5 10.8 75 2.4 CALM 0 6 0 3 1019.6 1018.3 0.2
25/07:00am 14.7 13.1 8.9 68 3.1 E 7 9 4 5 1019.2 1017.9 0.2
25/06:30am 13.2 12.2 7.2 67 3.0 ENE 2 9 1 5 1018.9 1017.6 0.2
25/06:00am 14.3 13.7 7.6 64 3.4 NE 0 0 0 0 1018.5 1017.2 0.2
25/05:30am 15.0 14.4 7.5 61 3.9 CALM 0 0 0 0 1018.2 1016.9 0.2
25/05:00am 13.8 13.0 8.0 68 3.0 NE 2 6 1 3 1018.0 1016.7 0.2
25/04:30am 12.1 10.3 8.0 76 2.1 NE 7 9 4 5 1017.8 1016.5 0.2
25/04:00am 14.0 13.6 8.4 69 2.9 CALM 0 0 0 0 1017.6 1016.3 0.2
25/03:30am 13.5 13.2 8.6 72 2.6 CALM 0 0 0 0 1017.5 1016.1 0.2
25/03:00am 13.2 11.9 9.3 77 2.1 N 6 9 3 5 1017.5 1016.1 0.2
25/02:30am 16.3 14.5 7.8 57 4.4 S 7 9 4 5 1017.6 1016.3 0.2
25/02:00am 16.6 15.3 9.3 62 3.9 E 6 7 3 4 1017.3 1016.0 0.2
25/01:30am 16.3 16.1 9.0 62 3.9 CALM 0 0 0 0 1017.3 1016.0 0.2
25/01:00am 16.8 16.3 9.5 62 4.0 NNW 2 7 1 4 1017.6 1016.3 0.2
25/12:30am 15.5 14.4 9.8 69 3.1 N 6 6 3 3 1017.3 1016.0 0.2
25/12:00am 16.1 15.0 9.8 66 3.4 NNW 6 11 3 6 1017.2 1015.9 0.2
 
Date/Time
EDT
Temp
°C
App
Temp
°C
Dew
Point
Rel
Hum
%
Delta-T
°C
Wind Press
QNH
hPa
Press
MSL
hPa
Rain
since 9 am
mm
Dir
 
Spd
km/h
Gust
km/h
Spd
kts
Gust
kts
24/11:30pm 18.7 17.5 9.5 55 5.0 WSW 6 7 3 4 1017.2 1015.9 0.2
24/11:00pm 19.0 17.9 10.0 56 5.0 N 6 7 3 4 1017.2 1015.9 0.2
24/10:30pm 19.2 18.3 10.7 58 4.8 N 6 7 3 4 1017.2 1015.9 0.2
24/10:00pm 17.6 16.1 10.7 64 3.8 SW 9 15 5 8 1017.5 1016.1 0.2
24/09:30pm 17.9 15.2 10.3 61 4.2 N 15 17 8 9 1016.9 1015.6 0.2
24/09:00pm 19.8 17.0 10.0 53 5.4 N 15 20 8 11 1016.9 1015.6 0.2
24/08:30pm 20.6 18.2 10.1 51 5.9 N 13 15 7 8 1016.7 1015.4 0.2
24/08:00pm 23.1 19.2 8.8 40 7.9 WNW 19 24 10 13 1016.9 1015.6 0.2
24/07:32pm 24.0 17.4 8.4 37 8.6 W 33 52 18 28 1016.4 1015.1 0.2
24/07:30pm 23.8 16.8 8.6 38 8.4 W 35 52 19 28 1016.4 1015.1 0.2
24/07:26pm 24.0 16.1 9.2 39 8.3 WSW 41 52 22 28 1016.3 1014.9 0.2
24/07:00pm 23.8 21.8 10.1 42 7.8 NW 11 13 6 7 1015.1 1013.7 0.2
24/06:30pm 25.2 22.2 9.1 36 9.1 NW 15 17 8 9 1015.0 1013.6 0.2
24/06:00pm 27.2 21.3 7.6 29 10.9 NNW 28 37 15 20 1014.9 1013.5 0.2
24/05:30pm 28.0 22.2 9.3 31 10.7 NW 30 39 16 21 1014.9 1013.5 0.2
24/05:00pm 27.3 23.2 10.1 34 9.9 NNW 22 30 12 16 1015.0 1013.6 0.2
24/04:30pm 27.7 21.4 9.0 31 10.6 NNW 32 43 17 23 1015.2 1013.9 0.2
24/04:00pm 27.6 22.9 10.8 35 9.8 NW 26 35 14 19 1015.7 1014.4 0.2
24/03:30pm 27.9 22.4 10.6 34 10.1 N 30 39 16 21 1016.1 1014.7 0.2
24/03:00pm 26.5 20.5 10.2 36 9.4 NNW 32 43 17 23 1016.7 1015.4 0.2
24/02:30pm 26.7 21.1 11.6 39 8.9 N 32 43 17 23 1017.0 1015.7 0.2
24/02:00pm 26.2 20.2 10.8 38 8.9 N 33 48 18 26 1017.5 1016.1 0.2
24/01:30pm 26.6 20.3 11.1 38 9.1 N 35 50 19 27 1018.0 1016.7 0.2
24/01:19pm 26.7 20.9 10.8 37 9.3 N 32 50 17 27 1018.1 1016.8 0.2
24/01:00pm 26.5 22.2 13.3 44 8.0 N 28 35 15 19 1018.6 1017.3 0.2
24/12:30pm 25.3 21.7 12.9 46 7.4 N 24 33 13 18 1019.2 1017.9 0.2
24/12:00pm 24.1 19.5 12.4 48 6.9 N 28 41 15 22 1019.6 1018.3 0.2
24/11:30am 23.8 18.5 12.4 48 6.7 N 32 39 17 21 1020.2 1019.0 0.2
24/11:00am 22.2 19.5 13.5 57 5.2 N 20 28 11 15 1021.0 1019.7 0.2
24/10:30am 22.6 21.8 15.0 62 4.7 N 13 19 7 10 1021.5 1020.3 0.2
24/10:00am 20.8 20.6 14.7 68 3.7 NNW 9 13 5 7 1021.9 1020.6 0.2
24/09:30am 20.0 18.8 13.9 68 3.6 N 13 19 7 10 1021.9 1020.6 0.2
24/09:00am 17.0 17.2 14.6 86 1.4 NNW 7 11 4 6 1022.0 1020.7 3.6
24/08:30am 15.8 15.7 13.8 88 1.2 N 7 9 4 5 1021.9 1020.6 3.6
24/08:00am 14.5 13.7 13.0 91 0.9 SE 9 13 5 7 1022.0 1020.7 3.6
24/07:30am 13.2 12.1 13.0 99 0.1 E 11 20 6 11 1021.9 1020.6 3.6
24/07:00am 12.9 11.6 12.6 98 0.2 SE 11 15 6 8 1022.1 1020.8 3.6
24/06:30am 12.7 11.6 11.9 95 0.4 SSW 9 11 5 6 1021.5 1020.3 3.4
24/06:00am 12.6 11.8 11.8 95 0.4 SSW 7 11 4 6 1021.2 1020.0 3.4
24/05:30am 12.3 11.1 11.5 95 0.4 SW 9 11 5 6 1021.0 1019.7 3.4
24/05:00am 12.9 12.6 11.6 92 0.7 W 4 7 2 4 1020.9 1019.6 3.4
24/04:30am 13.5 11.2 11.7 89 1.0 ENE 15 17 8 9 1020.8 1019.5 3.4
24/04:00am 13.6 10.4 11.8 89 1.0 NE 20 32 11 17 1021.1 1019.9 3.4
24/03:35am 13.3 9.8 12.2 93 0.6 ESE 22 35 12 19 1021.9 1020.6 3.4
24/03:30am 12.9 9.1 12.4 97 0.3 ESE 24 33 13 18 1022.4 1021.2 3.4
24/03:13am 13.6 10.6 12.5 93 0.6 SSE 20 22 11 12 1023.6 1022.4 1.8
24/03:00am 14.2 9.5 11.9 86 1.3 S 28 33 15 18 1024.2 1023.0 0.6
24/02:30am 14.2 10.0 11.0 81 1.8 SSW 24 33 13 18 1022.8 1021.6 0.2
24/02:00am 14.5 13.0 10.7 78 2.1 ESE 9 15 5 8 1021.0 1019.7 0.2
24/01:30am 13.8 12.8 10.4 80 1.8 SE 6 11 3 6 1021.1 1019.9 0.2
24/01:00am 14.0 14.0 9.8 76 2.2 CALM 0 0 0 0 1021.3 1020.1 0.2
24/12:30am 13.9 14.1 10.7 81 1.7 CALM 0 0 0 0 1021.3 1020.1 0.2
24/12:00am 15.2 13.3 10.4 73 2.6 SE 11 15 6 8 1021.3 1020.1 0.2
 
Date/Time
EDT
Temp
°C
App
Temp
°C
Dew
Point
Rel
Hum
%
Delta-T
°C
Wind Press
QNH
hPa
Press
MSL
hPa
Rain
since 9 am
mm
Dir
 
Spd
km/h
Gust
km/h
Spd
kts
Gust
kts
23/11:30pm 15.7 13.8 9.1 65 3.5 SE 9 17 5 9 1021.5 1020.3 0.2
23/11:00pm 16.1 13.6 9.8 66 3.4 WNW 13 26 7 14 1021.4 1020.2 0.2
23/10:30pm 17.1 13.7 9.0 59 4.4 NE 17 24 9 13 1021.4 1020.2 0.2
23/10:00pm 16.5 11.2 11.2 71 3.0 E 30 41 16 22 1021.5 1020.3 0.2
23/09:30pm 15.9 11.2 12.1 78 2.2 SE 28 41 15 22 1022.6 1021.4 0.2
23/09:23pm 15.9 11.2 11.9 77 2.3 SE 28 35 15 19 1023.1 1021.9 0.2
23/09:02pm 19.1 10.8 10.1 56 5.0 S 44 63 24 34 1022.3 1021.1 0.0
23/09:00pm 19.1 10.1 10.1 56 5.0 S 48 63 26 34 1022.4 1021.2 0.0
23/08:55pm 19.2 13.9 9.9 55 5.1 S 28 46 15 25 1022.3 1021.1 0.0
23/08:30pm 21.0 17.8 8.3 44 6.9 ESE 15 22 8 12 1021.1 1019.9 0.0
23/08:00pm 22.1 17.7 6.7 37 8.1 ENE 19 26 10 14 1020.5 1019.2 0.0
23/07:30pm 22.1 18.4 9.6 45 7.0 ENE 19 22 10 12 1019.8 1018.5 0.0
23/07:00pm 24.4 23.8 11.7 45 7.4 SW 6 7 3 4 1019.1 1017.8 0.0
23/06:30pm 25.5 24.4 10.5 39 8.7 WSW 7 9 4 5 1018.7 1017.5 0.0
23/06:00pm 26.5 25.0 8.5 32 10.1 W 6 13 3 7 1018.5 1017.2 0.0
23/05:30pm 26.7 23.7 7.7 30 10.5 SW 13 20 7 11 1018.5 1017.2 0.0
23/05:00pm 27.0 23.6 7.5 29 10.8 SW 15 20 8 11 1018.5 1017.2 0.0
23/04:30pm 27.1 25.1 8.5 31 10.5 WSW 9 17 5 9 1018.4 1017.1 0.0
23/04:00pm 27.0 24.1 8.0 30 10.6 WSW 13 20 7 11 1018.7 1017.5 0.0
23/03:30pm 26.9 24.3 7.9 30 10.6 S 11 20 6 11 1018.6 1017.3 0.0
23/03:00pm 26.6 24.2 7.1 29 10.7 WSW 9 13 5 7 1018.9 1017.6 0.0
23/02:30pm 26.7 22.8 7.2 29 10.7 WSW 17 22 9 12 1019.4 1018.1 0.0
23/02:00pm 25.8 21.9 8.8 34 9.5 SSW 19 24 10 13 1019.8 1018.5 0.0
23/01:30pm 25.9 23.5 10.1 37 9.1 SSW 13 22 7 12 1020.2 1019.0 0.0
23/01:00pm 25.7 22.1 8.2 33 9.7 S 17 26 9 14 1020.7 1019.4 0.0
23/12:30pm 24.4 24.1 11.4 44 7.6 WNW 4 11 2 6 1021.0 1019.7 0.0
23/12:00pm 23.2 22.8 12.5 51 6.3 W 6 11 3 6 1021.4 1020.2 0.0
23/11:30am 22.8 22.7 13.3 55 5.7 SW 6 11 3 6 1021.8 1020.5 0.0
23/11:00am 21.9 22.2 13.3 58 5.1 WNW 4 7 2 4 1022.1 1020.8 0.0
23/10:30am 20.0 19.1 12.5 62 4.4 W 9 13 5 7 1022.5 1021.3 0.0
23/10:00am 19.5 20.6 13.4 68 3.6 CALM 0 0 0 0 1022.4 1021.2 0.0
23/09:30am 16.5 17.1 13.0 80 2.0 SW 2 6 1 3 1022.2 1020.9 0.0
23/09:00am 15.8 15.2 12.4 80 1.9 WSW 7 9 4 5 1022.2 1020.9 0.0
23/08:30am 14.8 14.3 12.1 84 1.5 WSW 6 7 3 4 1022.0 1020.7 0.0
23/08:00am 13.5 14.2 12.1 91 0.8 CALM 0 7 0 4 1021.9 1020.6 0.0
23/07:30am 12.2 11.6 11.7 97 0.3 E 6 7 3 4 1022.0 1020.7 0.0
23/07:00am 10.1 9.0 10.1 100 0.0 W 6 7 3 4 1021.8 1020.5 0.0
23/06:30am 8.9 8.7 8.9 100 0.0 CALM 0 0 0 0 1021.4 1020.2 0.0
23/06:03am 9.3 8.0 9.3 100 0.0 W 6 7 3 4 1021.0 1019.7 0.0
23/06:00am 9.1 7.8 9.1 100 0.0 W 6 7 3 4 1021.0 1019.7 0.0
23/05:50am 8.2 7.4 8.1 99 0.0 SSW 2 9 1 5 1021.2 1020.0 0.0
23/05:30am 8.8 7.8 8.7 99 0.1 S 4 6 2 3 1020.7 1019.4 0.0
23/05:00am 9.3 7.8 9.2 99 0.1 E 7 9 4 5 1020.5 1019.2 0.0
23/04:30am 10.5 9.3 10.3 99 0.1 SSE 7 7 4 4 1020.6 1019.3 0.0
23/04:00am 10.3 10.4 10.0 98 0.2 CALM 0 0 0 0 1020.7 1019.4 0.0
23/03:30am 11.0 9.9 10.8 99 0.1 SSE 7 9 4 5 1020.7 1019.4 0.0
23/03:00am 10.8 11.1 10.8 100 0.0 CALM 0 0 0 0 1020.9 1019.6 0.0
23/02:30am 10.2 9.9 10.0 99 0.1 S 2 7 1 4 1021.1 1019.9 0.0
23/02:00am 10.5 10.6 10.0 97 0.3 CALM 0 0 0 0 1021.2 1020.0 0.0
23/01:30am 10.7 9.6 9.8 94 0.5 SE 6 7 3 4 1021.4 1020.2 0.0
23/01:00am 12.1 12.3 10.5 90 0.9 CALM 0 0 0 0 1021.5 1020.3 0.0
23/12:30am 13.0 11.4 11.7 92 0.7 SE 11 11 6 6 1021.8 1020.5 0.0
23/12:00am 12.7 12.2 10.6 87 1.1 SSE 4 9 2 5 1022.0 1020.7 0.0
 
Date/Time
EDT
Temp
°C
App
Temp
°C
Dew
Point
Rel
Hum
%
Delta-T
°C
Wind Press
QNH
hPa
Press
MSL
hPa
Rain
since 9 am
mm
Dir
 
Spd
km/h
Gust
km/h
Spd
kts
Gust
kts
22/11:30pm 13.2 13.4 10.7 85 1.4 CALM 0 0 0 0 1022.0 1020.7 0.0
22/11:00pm 14.2 14.1 10.8 80 1.9 ESE 2 9 1 5 1022.0 1020.7 0.0

Other Formats:

Comma delimited format used in spreadsheet applications
http://www.bom.gov.au/fwo/IDN60801/IDN60801.94729.axf

JavaScript Object Notation format (JSON) in row-major order
http://www.bom.gov.au/fwo/IDN60801/IDN60801.94729.json